Port Angeles, WA

12:10 AM PDT on September 18, 2014 (GMT -0700)
Kirner Road | Change Station
CLOSE
Current Station
Personal Weather Station
Location: Sequim, WA
Elevation: 200 ft
Nearby Weather Stations
4.0 Earthquake: Seabeck, Washington (21 hours ago)  

Elev 200 ft 48.12 °N, 123.12 °W | Updated 29 seconds ago

Overcast
Overcast
59.4 °F
Feels Like 59.4 °F
N
0.0
Wind Variable Wind from South
Gusts 0.0 mph

Today
High -- | Low -- °F
--% Chance of Precip.
Yesterday
High -- | Low -- °F
Precip. -- in
6:55 AM 7:19 PM
Waning Crescent, 29% visible
Pressure 29.76 in
Visibility 5.0 miles
Clouds Mostly Cloudy 6000 ft
Mostly Cloudy 7500 ft
Overcast 9000 ft
Dew Point 59 °F
Humidity 97%
Rainfall -999.00 in
Snow Depth Not available.
UV 0 out of 12
Pollen 1.40 out of 12
PM2.5 Good
Flu Activity Not available.
METAR KFHR 180653Z AUTO 00000KT 5SM BR BKN060 BKN075 OVC090 13/12 A2976 RMK AO2 RAE38 SLP077 P0000 T01280122

More Conditions Fewer Conditions

Pressure 29.76 in
Visibility 5.0 miles
Clouds Mostly Cloudy 6000 ft
Mostly Cloudy 7500 ft
Overcast 9000 ft
Dew Point 59 °F
Humidity 97%
Rainfall -999.00 in
Snow Depth Not available.
UV 0 out of 12
Pollen 1.40 out of 12
PM2.5 Good
Flu Activity Not available.
METAR KFHR 180653Z AUTO 00000KT 5SM BR BKN060 BKN075 OVC090 13/12 A2976 RMK AO2 RAE38 SLP077 P0000 T01280122

More Conditions Fewer Conditions

10-Day Weather Forecast

Almanac

Astronomy

Sep. 18, 2014 Rise Set
Actual Time 6:55 AM PDT 7:19 PM PDT
Civil Twilight 6:24 AM PDT 7:50 PM PDT
Nautical Twilight 5:47 AM PDT 8:27 PM PDT
Astronomical Twilight 5:08 AM PDT 9:05 PM PDT
Moon 1:34 AM PDT 4:30 PM PDT
Length of Visible Light 13h 26m
Length of Day
12h 24m
Tomorrow will be 3m 28s shorter.
Waning Crescent, 29% of the Moon is Illuminated
Today
Waning Crescent
Sep 24
New
Oct 1
First Quarter
Oct 8
Full
Oct 15
Last Quarter

Community

WunderPhotos

Upload Photos

1,754,299 photos uploaded!

Nearby

Air Quality

  Air Quality AQ Index Pollutant
Yesterday Good
PM2.5
Current Good
PM2.5

Snow Depth

Station Depth Elevation
Mf Nooksack 0 in 4980 ft
Dungeness 0 in 4100 ft
Spencer Meadow 0 in 3400 ft
Mount Crag 0 in 4050 ft
Spruce Springs 1 in 5700 ft

Earthquake Activity

City Distance Mag. Time & Date
Seabeck, Washington 40 miles 4.0 3:06 AM PDT
2014-09-17
Morton, Washington 129 miles 3.0 5:43 AM PDT
2014-09-16
Minimum magnitude displayed is 2.5.

Coastal Water Temperatures

Place Temperature
Port Angeles, WA 52.0 °F
Friday Harbor, WA 53.1 °F
Port Townsend, WA 52.0 °F
La Push, WA 60.1 °F

Nearby Weather Stations